Flight Track Log - Related Links

Times and Time Zones

All times are in EDT time to prevent confusion due to time zone crossing. See the OPT474 flight status page for this flight to view local times or setup timezone preferences in your user account.

Time Position Orientation Groundspeed Altitude Reporting Facility
EDT Latitude Longitude Course Direction KTS MPH feet Rate Location/Type
Thu 09:12:10 PM 34.0000 -118.4667 267° West 127 146 900  Level Southern California TRACON
Thu 09:12:43 PM 33.9992 -118.4864 267° West 131 151 1,300 1,137 Climbing Los Angeles Center
Thu 09:13:45 PM 33.9986 -118.5397 269° West 151 174 2,700 823 Climbing Los Angeles Center
Thu 09:14:47 PM 33.9944 -118.6053 266° West 204 235 3,000 581 Climbing Los Angeles Center
Thu 09:15:49 PM 33.9375 -118.6622 220° Southwest 249 287 3,900 1,707 Climbing Los Angeles Center
Thu 09:16:50 PM 33.8964 -118.7336 235° Southwest 280 322 6,500 2,585 Climbing Los Angeles Center
Thu 09:17:52 PM 33.8839 -118.8286 261° West 279 321 9,200 2,565 Climbing Los Angeles Center
Thu 09:18:54 PM 33.9092 -118.9192 289° West 283 326 11,800 2,129 Climbing Los Angeles Center
Thu 09:19:56 PM 33.9358 -119.0131 289° West 296 341 13,600 1,645 Climbing Los Angeles Center
Thu 09:20:58 PM 33.9775 -119.1086 298° West 329 379 15,200 1,645 Climbing Los Angeles Center
Thu 09:22:00 PM 34.0433 -119.1894 315° West 339 390 17,000 1,645 Climbing Los Angeles Center
Thu 09:23:02 PM 34.1092 -119.2714 314° West 341 392 18,600 1,512 Climbing Los Angeles Center
Thu 09:24:03 PM 34.1917 -119.3739 314° West 353 406 20,100 1,171 Climbing Los Angeles Center
Thu 09:25:05 PM 34.2469 -119.4444 313° West 360 414 21,000 1,113 Climbing Los Angeles Center
Thu 09:26:07 PM 34.3333 -119.5517 314° West 370 426 22,400 1,210 Climbing Los Angeles Center
Thu 09:27:09 PM 34.4075 -119.6431 315° West 378 435 23,500 1,065 Climbing Los Angeles Center
Thu 09:28:11 PM 34.4806 -119.7364 314° West 382 440 24,600 1,073 Climbing Los Angeles Center
Thu 09:29:12 PM 34.5644 -119.8183 321° Northwest 388 447 25,700 1,122 Climbing Los Angeles Center
Thu 09:30:14 PM 34.6653 -119.8981 327° Northwest 394 453 26,900 1,095 Climbing Los Angeles Center
Thu 09:31:18 PM 34.7556 -119.9750 325° Northwest 396 456 28,000 1,016 Climbing Los Angeles Center
Thu 09:32:18 PM 34.8481 -120.0497 326° Northwest 398 458 29,000 836 Climbing Los Angeles Center
Thu 09:33:20 PM 34.9411 -120.1272 326° Northwest 407 468 29,700 488 Climbing Los Angeles Center
Thu 09:34:21 PM 35.0569 -120.2228 326° Northwest 422 486 30,000 146 Climbing Los Angeles Center
Thu 09:35:23 PM 35.1581 -120.3081 325° Northwest 444 511 30,000  Level Los Angeles Center
Thu 09:36:26 PM 35.2619 -120.3942 326° Northwest 453 521 30,000  Level Los Angeles Center
Thu 09:37:27 PM 35.3675 -120.4850 325° Northwest 478 550 30,000  Level Los Angeles Center
Thu 09:38:29 PM 35.4731 -120.5750 325° Northwest 469 540 30,000  Level Los Angeles Center
Thu 09:39:30 PM 35.5797 -120.6647 326° Northwest 466 536 30,000  Level Los Angeles Center
Thu 09:40:32 PM 35.7008 -120.7672 326° Northwest 467 537 30,000  Level Los Angeles Center
Thu 09:41:34 PM 35.8039 -120.8611 324° Northwest 464 534 30,000 -48 Level Los Angeles Center
Thu 09:42:36 PM 35.9139 -120.9497 327° Northwest 467 537 29,900 -1,216 Descending Los Angeles Center
Thu 09:44:07 PM 36.0833 -121.1000 324° Northwest 457 526 26,900 -1,849 Descending Northern Cal TRACON
Thu 09:45:02 PM 36.1647 -121.1644 327° Northwest 456 525 25,400 -1,914 Descending Oakland Center
Thu 09:46:03 PM 36.2878 -121.2717 325° Northwest 451 519 23,200 -2,000 Descending Oakland Center
Thu 09:47:05 PM 36.3881 -121.3603 325° Northwest 443 510 21,300 -1,610 Descending Oakland Center
Thu 09:48:06 PM 36.4892 -121.4461 326° Northwest 439 505 19,900 -1,574 Descending Oakland Center
Thu 09:49:07 PM 36.5806 -121.5297 324° Northwest 412 474 18,100 -1,854 Descending Oakland Center
Thu 09:50:09 PM 36.6719 -121.6028 327° Northwest 393 452 16,100 -2,049 Descending Oakland Center
Thu 09:51:10 PM 36.7817 -121.5911 North 394 453 13,900 -2,656 Descending Oakland Center
Thu 09:52:11 PM 36.8872 -121.6281 344° North 354 407 10,700 -2,488 Descending Oakland Center
Thu 09:53:13 PM 36.9719 -121.6525 347° North 321 369 8,800 -1,561 Descending Oakland Center
Thu 09:54:14 PM 37.0500 -121.6761 346° North 294 338 7,500 -1,426 Descending Oakland Center
Thu 09:55:15 PM 37.1256 -121.7014 345° North 284 327 5,900 -1,623 Descending Oakland Center
Thu 09:56:16 PM 37.1931 -121.7383 336° Northwest 275 316 4,200 -1,366 Descending Oakland Center
Thu 09:57:18 PM 37.2419 -121.8000 315° West 257 296 3,100 -1,073 Descending Oakland Center
Thu 09:58:19 PM 37.2842 -121.8481 318° Northwest 228 262 2,000 -934 Descending Oakland Center
Thu 09:59:20 PM 37.3225 -121.8856 322° Northwest 198 228 1,200 -934 Descending Oakland Center
Thu 10:00:21 PM 37.3489 -121.9161 317° Northwest 134 154 100 -1,082 Descending Oakland Center
Thu 10:02:00 PM 37.3500 -121.9167 North  Level FlightAware Approximate
Thu 10:09:00 PM 37.3627 -121.9291 North  Level Estimated

Login

Don't have an account? Register now (free) for customized features, flight alerts, and more!